createdAt,value
2022-09-16T00:00:52.339Z,0.90
2022-09-16T00:03:38.691Z,1.45
2022-09-16T00:06:06.805Z,1.00
2022-09-16T00:08:34.205Z,0.80
2022-09-16T00:11:02.995Z,1.05
2022-09-16T00:13:30.306Z,0.98
2022-09-16T00:15:57.752Z,1.63
2022-09-16T00:18:25.243Z,0.82
2022-09-16T00:20:54.916Z,0.77
2022-09-16T00:23:22.312Z,1.45
2022-09-16T00:25:53.951Z,1.05
2022-09-16T00:28:22.927Z,0.75
2022-09-16T00:30:50.345Z,1.10
2022-09-16T00:33:18.540Z,1.02
2022-09-16T00:35:46.809Z,1.10
2022-09-16T00:38:14.401Z,1.05
2022-09-16T00:40:47.063Z,0.80
2022-09-16T00:43:19.420Z,1.77
2022-09-16T00:45:57.110Z,0.90
2022-09-16T00:48:27.539Z,1.08
2022-09-16T00:51:00.646Z,0.70
2022-09-16T00:53:42.847Z,0.85
2022-09-16T00:56:13.183Z,1.08
2022-09-16T00:58:47.429Z,1.10
2022-09-16T01:01:15.281Z,0.40
2022-09-16T01:03:48.970Z,1.02
2022-09-16T01:06:19.556Z,0.77
2022-09-16T01:08:50.383Z,0.60
2022-09-16T01:11:18.186Z,0.63
2022-09-16T01:13:47.343Z,0.60
2022-09-16T01:16:28.966Z,0.60
2022-09-16T01:19:31.297Z,0.80
2022-09-16T01:22:19.185Z,0.88
2022-09-16T01:24:59.041Z,0.77
2022-09-16T01:27:53.545Z,1.17
2022-09-16T01:30:34.455Z,0.70
2022-09-16T01:33:06.731Z,0.52
2022-09-16T01:35:52.836Z,0.50
2022-09-16T01:38:29.056Z,0.98
2022-09-16T01:41:14.579Z,0.60
2022-09-16T01:44:10.938Z,1.40
2022-09-16T01:46:46.459Z,0.52
2022-09-16T01:49:22.740Z,1.55
2022-09-16T01:52:02.392Z,0.88
2022-09-16T01:54:42.845Z,0.77
2022-09-16T01:57:22.756Z,0.82
2022-09-16T02:00:06.738Z,0.55
2022-09-16T02:03:01.611Z,1.10
2022-09-16T02:05:37.656Z,0.77
2022-09-16T02:08:46.067Z,0.98
2022-09-16T02:11:16.801Z,1.00
2022-09-16T02:13:50.394Z,1.30
2022-09-16T02:16:29.542Z,1.00
2022-09-16T02:19:02.697Z,1.63
2022-09-16T02:21:34.326Z,1.17
2022-09-16T02:26:39.598Z,0.90
2022-09-16T02:29:23.439Z,0.95
2022-09-16T02:31:57.061Z,0.95
2022-09-16T02:34:31.351Z,0.93
2022-09-16T02:37:04.739Z,0.80
2022-09-16T02:39:37.785Z,0.75
2022-09-16T02:42:05.714Z,0.80
2022-09-16T02:44:34.446Z,1.08
2022-09-16T02:47:28.090Z,0.80
2022-09-16T02:49:57.978Z,0.80
2022-09-16T02:52:54.348Z,0.68
2022-09-16T02:55:33.244Z,0.65
2022-09-16T02:58:00.839Z,0.98
2022-09-16T03:00:32.284Z,0.77
2022-09-16T03:02:59.566Z,0.88
2022-09-16T03:05:30.182Z,0.98
2022-09-16T03:07:58.558Z,0.80
2022-09-16T03:10:29.692Z,0.60
2022-09-16T03:13:09.679Z,1.08
2022-09-16T03:15:43.542Z,0.60
2022-09-16T03:18:23.119Z,1.05
2022-09-16T03:21:57.904Z,1.02
2022-09-16T03:24:45.706Z,0.93
2022-09-16T03:27:42.880Z,1.00
2022-09-16T03:30:11.472Z,0.85
2022-09-16T03:32:59.705Z,1.20
2022-09-16T03:35:32.225Z,1.25
2022-09-16T03:38:02.464Z,1.00
2022-09-16T03:40:32.681Z,1.15
2022-09-16T03:43:00.111Z,0.75
2022-09-16T03:45:27.319Z,1.13
2022-09-16T03:47:54.538Z,1.10
2022-09-16T03:50:22.098Z,0.85
2022-09-16T03:52:49.674Z,1.35
2022-09-16T03:55:17.181Z,1.05
2022-09-16T03:57:44.746Z,1.05
2022-09-16T04:00:12.523Z,1.50
2022-09-16T04:02:39.732Z,0.90
2022-09-16T04:05:08.355Z,1.15
2022-09-16T04:07:36.181Z,1.20
2022-09-16T04:10:04.918Z,1.08
2022-09-16T04:12:32.475Z,1.15
2022-09-16T04:15:00.968Z,0.95
2022-09-16T04:17:32.071Z,1.15
2022-09-16T04:19:59.540Z,1.23
2022-09-16T04:22:31.073Z,0.98
2022-09-16T04:24:58.497Z,0.75
2022-09-16T04:27:26.005Z,1.25
2022-09-16T04:29:53.289Z,1.17
2022-09-16T04:32:20.445Z,1.17
2022-09-16T04:34:47.880Z,0.93
2022-09-16T04:37:15.022Z,1.10
2022-09-16T04:39:42.139Z,1.02
2022-09-16T04:42:12.367Z,1.10
2022-09-16T04:44:39.961Z,1.05
2022-09-16T04:47:07.128Z,1.38
2022-09-16T04:49:34.517Z,1.08
2022-09-16T04:52:01.930Z,1.30
2022-09-16T04:54:29.137Z,1.52
2022-09-16T04:56:57.774Z,0.95
2022-09-16T04:59:24.902Z,0.80
2022-09-16T05:01:52.360Z,1.90
2022-09-16T05:04:19.835Z,0.77
2022-09-16T05:06:47.002Z,1.15
2022-09-16T05:09:14.199Z,1.40
2022-09-16T05:11:42.308Z,1.00
2022-09-16T05:14:18.800Z,0.88
2022-09-16T05:16:47.101Z,0.90
2022-09-16T05:19:15.181Z,1.02
2022-09-16T05:21:42.877Z,0.80
2022-09-16T05:24:12.724Z,0.85
2022-09-16T05:26:42.188Z,1.30
2022-09-16T05:29:15.865Z,0.75
2022-09-16T05:31:46.131Z,0.82
2022-09-16T05:34:19.062Z,0.77
2022-09-16T05:36:47.950Z,1.20
2022-09-16T05:39:25.983Z,1.15
2022-09-16T05:41:59.424Z,1.58
2022-09-16T05:44:28.195Z,1.13
2022-09-16T05:46:55.902Z,1.67
2022-09-16T05:49:23.885Z,1.10
2022-09-16T05:51:52.091Z,1.20
2022-09-16T05:54:20.456Z,0.88
2022-09-16T05:56:48.312Z,0.80
2022-09-16T05:59:17.003Z,1.35
2022-09-16T06:01:45.317Z,0.70
2022-09-16T06:04:14.614Z,0.98
2022-09-16T06:06:43.739Z,1.55
2022-09-16T06:09:18.245Z,0.50
2022-09-16T06:11:49.258Z,0.60
2022-09-16T06:14:18.304Z,0.63
2022-09-16T06:16:46.252Z,0.82
2022-09-16T06:19:17.238Z,0.68
2022-09-16T06:21:46.792Z,0.90
2022-09-16T06:24:16.060Z,0.98
2022-09-16T06:26:45.124Z,0.90
2022-09-16T06:29:13.720Z,0.68
2022-09-16T06:31:41.434Z,0.55
2022-09-16T06:34:14.588Z,1.00
2022-09-16T06:36:45.012Z,1.08
2022-09-16T06:39:14.997Z,0.82
2022-09-16T06:41:43.255Z,0.50
2022-09-16T06:44:10.600Z,0.80
2022-09-16T06:46:37.934Z,0.95
2022-09-16T06:49:06.420Z,0.98
2022-09-16T06:51:35.007Z,0.90
2022-09-16T06:54:05.093Z,0.73
2022-09-16T06:56:34.191Z,0.90
2022-09-16T06:59:01.368Z,0.73
2022-09-16T07:01:30.689Z,0.68
2022-09-16T07:04:01.583Z,0.85
2022-09-16T07:06:51.051Z,0.60
2022-09-16T07:09:17.935Z,0.88
2022-09-16T07:11:45.416Z,0.70
2022-09-16T07:14:12.566Z,0.50
2022-09-16T07:16:39.992Z,0.55
2022-09-16T07:19:07.204Z,0.57
2022-09-16T07:21:34.401Z,0.68
2022-09-16T07:24:02.928Z,0.70
2022-09-16T07:26:35.449Z,0.50
2022-09-16T07:29:05.730Z,0.57
2022-09-16T07:31:35.324Z,0.70
2022-09-16T07:34:05.062Z,0.60
2022-09-16T07:36:41.170Z,1.10
2022-09-16T07:39:09.383Z,0.60
2022-09-16T07:41:45.888Z,0.50
2022-09-16T07:44:15.607Z,0.50
2022-09-16T07:46:43.593Z,0.60
2022-09-16T07:49:14.007Z,1.00
2022-09-16T07:51:41.569Z,0.90
2022-09-16T07:54:12.696Z,0.75
2022-09-16T07:56:41.554Z,0.60
2022-09-16T07:59:15.932Z,0.90
2022-09-16T08:01:48.576Z,0.60
2022-09-16T08:04:17.115Z,1.02
2022-09-16T08:06:44.545Z,0.65
2022-09-16T08:12:01.662Z,0.75
2022-09-16T08:14:29.094Z,0.60
2022-09-16T08:16:56.508Z,1.15
2022-09-16T08:19:23.726Z,0.60
2022-09-16T08:21:51.551Z,1.02
2022-09-16T08:24:18.801Z,0.80
2022-09-16T08:26:45.984Z,1.00
2022-09-16T08:29:13.755Z,0.60
2022-09-16T08:31:41.208Z,1.00
2022-09-16T08:34:08.450Z,1.00
2022-09-16T08:36:35.856Z,1.08
2022-09-16T08:39:03.355Z,1.05
2022-09-16T08:42:07.972Z,0.80
2022-09-16T08:45:09.339Z,0.90
2022-09-16T08:48:01.356Z,0.75
2022-09-16T08:50:33.571Z,1.10
2022-09-16T08:53:05.143Z,0.52
2022-09-16T08:55:41.009Z,0.57
2022-09-16T08:58:19.820Z,0.63
2022-09-16T09:01:03.023Z,0.55
2022-09-16T09:03:46.147Z,0.88
2022-09-16T09:06:24.219Z,0.55
2022-09-16T09:09:13.897Z,0.85
2022-09-16T09:12:15.715Z,0.40
2022-09-16T09:17:49.921Z,0.57
2022-09-16T09:20:38.853Z,1.15
2022-09-16T09:23:32.458Z,0.60
2022-09-16T09:26:13.855Z,1.05
2022-09-16T09:29:15.087Z,0.77
2022-09-16T09:32:01.273Z,0.60
2022-09-16T09:34:45.805Z,1.58
2022-09-16T09:37:31.977Z,1.20
2022-09-16T09:40:21.918Z,0.52
2022-09-16T09:42:59.608Z,0.70
2022-09-16T09:45:33.536Z,0.50
2022-09-16T09:48:13.359Z,0.52
2022-09-16T09:50:44.379Z,0.63
2022-09-16T09:53:11.538Z,0.70
2022-09-16T09:55:41.008Z,0.68
2022-09-16T09:58:12.396Z,0.63
2022-09-16T10:00:39.673Z,0.50
2022-09-16T10:03:11.724Z,0.85
2022-09-16T10:05:39.363Z,0.50
2022-09-16T10:08:14.446Z,0.70
2022-09-16T10:10:50.680Z,1.20
2022-09-16T10:13:19.595Z,0.95
2022-09-16T10:15:51.937Z,0.43
2022-09-16T10:18:30.049Z,0.52
2022-09-16T10:21:04.415Z,0.68
2022-09-16T10:23:32.612Z,0.50
2022-09-16T10:26:20.368Z,1.02
2022-09-16T10:29:15.583Z,0.40
2022-09-16T10:31:43.690Z,0.70
2022-09-16T10:34:32.038Z,0.60
2022-09-16T10:37:14.662Z,0.60
2022-09-16T10:39:46.509Z,0.50
2022-09-16T10:42:46.773Z,0.50
2022-09-16T10:45:36.076Z,0.55
2022-09-16T10:48:15.487Z,0.75
2022-09-16T10:51:05.471Z,0.45
2022-09-16T10:53:43.955Z,0.40
2022-09-16T10:56:24.275Z,0.75
2022-09-16T10:59:12.936Z,0.50
2022-09-16T11:02:28.129Z,0.25
2022-09-16T11:05:12.706Z,0.50
2022-09-16T11:07:58.098Z,0.50
2022-09-16T11:10:33.171Z,0.50
2022-09-16T11:13:18.889Z,0.60
2022-09-16T11:16:00.406Z,0.73
2022-09-16T11:18:50.756Z,0.50
2022-09-16T11:21:26.336Z,0.50
2022-09-16T11:24:30.546Z,0.40
2022-09-16T11:27:28.537Z,0.88
2022-09-16T11:30:17.397Z,0.65
2022-09-16T11:36:23.906Z,1.23
2022-09-16T11:39:05.731Z,0.80
2022-09-16T11:41:42.436Z,0.50
2022-09-16T11:44:38.964Z,0.70
2022-09-16T11:47:27.456Z,0.98
2022-09-16T11:50:08.317Z,0.40
2022-09-16T11:52:44.768Z,0.63
2022-09-16T11:55:46.832Z,0.50
2022-09-16T11:58:38.350Z,0.57
2022-09-16T12:01:31.953Z,0.50
2022-09-16T12:04:06.825Z,0.45
2022-09-16T12:06:58.957Z,0.68
2022-09-16T12:12:12.597Z,0.80
2022-09-16T12:14:49.925Z,0.50
2022-09-16T12:17:22.448Z,0.43
2022-09-16T12:20:00.186Z,0.50
2022-09-16T12:22:43.729Z,0.32
2022-09-16T12:25:29.254Z,0.40
2022-09-16T12:28:03.365Z,0.57
2022-09-16T12:30:37.532Z,0.85
2022-09-16T12:33:28.828Z,1.00
2022-09-16T12:36:04.129Z,0.23
2022-09-16T12:38:31.684Z,0.52
2022-09-16T12:41:29.371Z,0.73
2022-09-16T12:44:33.999Z,0.77
2022-09-16T12:47:23.498Z,0.50
2022-09-16T12:50:06.306Z,0.95
2022-09-16T12:53:10.176Z,0.50
2022-09-16T12:55:46.865Z,0.30
2022-09-16T12:58:33.128Z,0.32
2022-09-16T13:01:09.842Z,0.40
2022-09-16T13:03:45.263Z,0.57
2022-09-16T13:06:34.494Z,0.40
2022-09-16T13:09:25.580Z,0.40
2022-09-16T13:14:54.566Z,0.47
2022-09-16T13:17:33.957Z,0.43
2022-09-16T13:20:20.214Z,0.68
2022-09-16T13:22:51.817Z,0.40
2022-09-16T13:25:58.290Z,0.30
2022-09-16T13:28:36.423Z,0.45
2022-09-16T13:31:12.823Z,0.88
2022-09-16T13:33:45.350Z,0.40
2022-09-16T13:36:21.512Z,0.55
2022-09-16T13:38:52.065Z,0.50
2022-09-16T13:41:34.712Z,0.30
2022-09-16T13:44:21.823Z,0.20
2022-09-16T13:46:49.343Z,0.70
2022-09-16T13:49:26.019Z,0.70
2022-09-16T13:51:53.885Z,0.60
2022-09-16T13:54:25.372Z,1.08
2022-09-16T13:57:25.912Z,0.30
2022-09-16T14:00:13.430Z,0.55
2022-09-16T14:03:15.881Z,1.17
2022-09-16T14:06:20.655Z,0.40
2022-09-16T14:08:53.605Z,1.00
2022-09-16T14:11:31.840Z,0.82
2022-09-16T14:14:29.918Z,0.32
2022-09-16T14:17:05.585Z,0.73
2022-09-16T14:19:37.898Z,0.68
2022-09-16T14:22:14.616Z,0.50
2022-09-16T14:24:43.259Z,0.50
2022-09-16T14:27:23.306Z,0.63
2022-09-16T14:29:58.972Z,0.20
2022-09-16T14:32:30.406Z,0.90
2022-09-16T14:35:01.929Z,0.40
2022-09-16T14:40:11.647Z,0.50
2022-09-16T14:42:48.387Z,0.40
2022-09-16T14:45:17.521Z,0.45
2022-09-16T14:47:53.387Z,0.40
2022-09-16T14:50:28.611Z,0.40
2022-09-16T14:53:05.738Z,0.50
2022-09-16T14:55:37.681Z,0.65
2022-09-16T14:58:05.248Z,0.60
2022-09-16T15:00:50.732Z,0.32
2022-09-16T15:03:42.400Z,0.57
2022-09-16T15:06:16.363Z,0.55
2022-09-16T15:08:47.330Z,0.30
2022-09-16T15:11:43.579Z,0.47
2022-09-16T15:14:09.443Z,0.52
2022-09-16T15:16:44.232Z,0.40
2022-09-16T15:19:25.445Z,0.43
2022-09-16T15:21:53.400Z,0.50
2022-09-16T15:24:25.029Z,0.50
2022-09-16T15:26:53.898Z,0.88
2022-09-16T15:29:24.242Z,0.40
2022-09-16T15:31:52.611Z,0.47
2022-09-16T15:34:22.692Z,0.68
2022-09-16T15:36:59.448Z,0.30
2022-09-16T15:39:33.085Z,0.82
2022-09-16T15:42:24.150Z,0.73
2022-09-16T15:45:03.334Z,0.57
2022-09-16T15:47:34.759Z,0.65
2022-09-16T15:50:10.007Z,0.60
2022-09-16T15:53:00.150Z,0.40
2022-09-16T15:55:44.144Z,0.40
2022-09-16T15:58:33.026Z,0.50
2022-09-16T16:01:18.251Z,0.50
2022-09-16T16:03:45.631Z,0.40
2022-09-16T16:06:13.391Z,0.43
2022-09-16T16:08:53.082Z,0.32
2022-09-16T16:11:23.532Z,0.50
2022-09-16T16:13:51.270Z,0.75
2022-09-16T16:16:19.440Z,0.63
2022-09-16T16:18:47.041Z,1.08
2022-09-16T16:21:16.461Z,0.75
2022-09-16T16:23:43.768Z,1.65
2022-09-16T16:26:11.903Z,0.80
2022-09-16T16:28:39.120Z,0.43
2022-09-16T16:31:14.290Z,0.80
2022-09-16T16:33:44.680Z,0.55
2022-09-16T16:36:14.430Z,0.43
2022-09-16T16:38:41.931Z,0.40
2022-09-16T16:41:10.766Z,0.60
2022-09-16T16:43:38.729Z,0.63
2022-09-16T16:46:06.038Z,1.00
2022-09-16T16:48:34.313Z,0.75
2022-09-16T16:51:10.329Z,0.70
2022-09-16T16:53:38.733Z,0.98
2022-09-16T16:56:14.466Z,0.70
2022-09-16T16:58:45.263Z,1.23
2022-09-16T17:01:16.296Z,1.30
2022-09-16T17:03:46.437Z,0.73
2022-09-16T17:06:13.969Z,0.57
2022-09-16T17:08:41.465Z,0.93
2022-09-16T17:11:14.659Z,0.80
2022-09-16T17:13:45.917Z,1.05
2022-09-16T17:16:16.884Z,0.63
2022-09-16T17:18:44.924Z,0.80
2022-09-16T17:21:24.175Z,0.70
2022-09-16T17:23:52.597Z,0.50
2022-09-16T17:26:21.247Z,1.00
2022-09-16T17:28:50.936Z,1.25
2022-09-16T17:31:26.692Z,0.60
2022-09-16T17:34:05.625Z,1.05
2022-09-16T17:36:35.375Z,0.70
2022-09-16T17:39:05.659Z,1.10
2022-09-16T17:41:33.261Z,1.08
2022-09-16T17:44:05.668Z,1.02
2022-09-16T17:46:33.660Z,1.13
2022-09-16T17:49:04.193Z,1.17
2022-09-16T17:51:32.444Z,1.27
2022-09-16T17:54:00.194Z,2.45
2022-09-16T17:56:27.632Z,3.28
2022-09-16T17:58:55.202Z,3.10
2022-09-16T18:01:24.777Z,2.00
2022-09-16T18:03:54.628Z,1.80
2022-09-16T18:06:24.905Z,2.15
2022-09-16T18:08:52.554Z,1.42
2022-09-16T18:11:21.378Z,1.10
2022-09-16T18:13:49.125Z,1.40
2022-09-16T18:16:19.595Z,1.02
2022-09-16T18:18:51.340Z,0.95
2022-09-16T18:21:19.917Z,1.45
2022-09-16T18:23:50.909Z,0.75
2022-09-16T18:26:19.053Z,0.75
2022-09-16T18:29:08.732Z,1.15
2022-09-16T18:31:35.724Z,1.40
2022-09-16T18:34:02.968Z,2.15
2022-09-16T18:36:31.043Z,2.08
2022-09-16T18:38:59.177Z,1.90
2022-09-16T18:41:37.615Z,1.73
2022-09-16T18:44:14.654Z,1.58
2022-09-16T18:46:42.338Z,1.52
2022-09-16T18:49:12.984Z,1.50
2022-09-16T18:51:51.165Z,1.38
2022-09-16T18:54:28.186Z,1.10
2022-09-16T18:56:57.543Z,1.17
2022-09-16T18:59:28.565Z,1.80
2022-09-16T19:01:58.696Z,1.38
2022-09-16T19:04:29.008Z,1.08
2022-09-16T19:07:06.059Z,2.00
2022-09-16T19:09:41.282Z,1.35
2022-09-16T19:12:13.259Z,1.42
2022-09-16T19:14:41.103Z,1.45
2022-09-16T19:17:09.296Z,1.20
2022-09-16T19:19:36.831Z,1.15
2022-09-16T19:22:06.239Z,1.00
2022-09-16T19:24:34.708Z,1.00
2022-09-16T19:27:02.120Z,1.00
2022-09-16T19:29:29.786Z,1.90
2022-09-16T19:31:58.400Z,1.42
2022-09-16T19:34:25.696Z,1.25
2022-09-16T19:36:56.101Z,1.02
2022-09-16T19:39:24.083Z,1.25
2022-09-16T19:41:51.262Z,1.48
2022-09-16T19:44:19.059Z,1.90
2022-09-16T19:46:49.303Z,1.25
2022-09-16T19:49:20.088Z,1.30
2022-09-16T19:51:49.270Z,1.50
2022-09-16T19:54:17.250Z,1.52
2022-09-16T19:56:50.186Z,1.67
2022-09-16T19:59:18.936Z,1.00
2022-09-16T20:01:47.683Z,1.13
2022-09-16T20:04:19.721Z,1.25
2022-09-16T20:06:47.495Z,1.13
2022-09-16T20:09:14.695Z,0.93
2022-09-16T20:11:44.751Z,1.55
2022-09-16T20:14:18.943Z,1.05
2022-09-16T20:16:47.488Z,1.45
2022-09-16T20:19:16.876Z,1.13
2022-09-16T20:21:44.464Z,0.90
2022-09-16T20:24:18.340Z,1.63
2022-09-16T20:26:48.261Z,0.80
2022-09-16T20:29:17.400Z,0.88
2022-09-16T20:31:45.464Z,0.90
2022-09-16T20:34:14.889Z,0.77
2022-09-16T20:36:44.376Z,0.77
2022-09-16T20:39:12.651Z,0.70
2022-09-16T20:41:41.118Z,0.82
2022-09-16T20:44:13.444Z,0.82
2022-09-16T20:46:40.622Z,0.65
2022-09-16T20:49:12.607Z,0.60
2022-09-16T20:54:10.355Z,0.60
2022-09-16T20:56:40.647Z,0.55
2022-09-16T20:59:10.062Z,0.70
2022-09-16T21:01:39.166Z,0.82
2022-09-16T21:04:11.294Z,0.80
2022-09-16T21:06:38.597Z,0.60
2022-09-16T21:09:09.581Z,0.55
2022-09-16T21:11:38.718Z,0.70
2022-09-16T21:14:06.986Z,0.95
2022-09-16T21:16:36.171Z,0.60
2022-09-16T21:19:05.883Z,0.70
2022-09-16T21:21:33.335Z,0.50
2022-09-16T21:24:03.246Z,0.90
2022-09-16T21:26:32.621Z,1.13
2022-09-16T21:29:02.627Z,0.82
2022-09-16T21:31:34.761Z,1.27
2022-09-16T21:34:03.239Z,1.05
2022-09-16T21:36:31.319Z,0.80
2022-09-16T21:38:59.262Z,1.10
2022-09-16T21:41:27.641Z,0.90
2022-09-16T21:43:56.636Z,0.77
2022-09-16T21:46:29.593Z,1.23
2022-09-16T21:49:02.174Z,0.70
2022-09-16T21:51:35.275Z,0.60
2022-09-16T21:54:05.850Z,1.15
2022-09-16T21:56:33.324Z,1.00
2022-09-16T21:59:00.898Z,1.02
2022-09-16T22:01:30.455Z,1.27
2022-09-16T22:04:00.359Z,0.77
2022-09-16T22:06:28.164Z,0.95
2022-09-16T22:08:57.616Z,1.02
2022-09-16T22:11:27.271Z,0.80
2022-09-16T22:13:56.216Z,0.95
2022-09-16T22:16:29.008Z,0.90
2022-09-16T22:19:02.119Z,0.90
2022-09-16T22:21:31.907Z,1.48
2022-09-16T22:24:00.435Z,1.63
2022-09-16T22:26:28.925Z,1.10
2022-09-16T22:28:56.975Z,1.33
2022-09-16T22:31:29.756Z,1.30
2022-09-16T22:34:00.355Z,0.80
2022-09-16T22:36:29.931Z,1.13
2022-09-16T22:39:04.791Z,1.65
2022-09-16T22:41:33.533Z,1.83
2022-09-16T22:44:00.925Z,1.15
2022-09-16T22:46:34.561Z,0.88
2022-09-16T22:49:02.089Z,1.15
2022-09-16T22:51:31.100Z,0.88
2022-09-16T22:53:58.444Z,0.95
2022-09-16T22:56:31.938Z,0.80
2022-09-16T22:59:05.605Z,1.23
2022-09-16T23:01:39.604Z,0.82
2022-09-16T23:04:09.105Z,1.38
2022-09-16T23:06:38.521Z,1.48
2022-09-16T23:09:08.077Z,1.05
2022-09-16T23:11:35.980Z,1.13
2022-09-16T23:14:05.321Z,0.95
2022-09-16T23:16:35.801Z,1.30
2022-09-16T23:19:07.759Z,0.93
2022-09-16T23:21:36.483Z,0.85
2022-09-16T23:24:04.859Z,1.00
2022-09-16T23:26:37.442Z,1.00
2022-09-16T23:29:07.329Z,0.80
2022-09-16T23:31:40.421Z,0.93
2022-09-16T23:34:12.853Z,0.80
2022-09-16T23:36:42.434Z,0.80
2022-09-16T23:39:13.379Z,0.88
2022-09-16T23:41:42.436Z,0.93
2022-09-16T23:44:13.495Z,1.38
2022-09-16T23:46:41.037Z,0.80
2022-09-16T23:49:09.889Z,0.77
2022-09-16T23:51:37.756Z,0.82
2022-09-16T23:54:05.397Z,0.60
2022-09-16T23:56:32.853Z,0.52
2022-09-16T23:59:00.924Z,0.60
